sensor_id;sensor_type;location;lat;lon;timestamp;P1;durP1;ratioP1;P2;durP2;ratioP2
13475;SDS011;6810;63.824;20.288;2023-06-26T00:01:41;5.37;;;4.67;;
13475;SDS011;6810;63.824;20.288;2023-06-26T00:04:09;5.17;;;4.67;;
13475;SDS011;6810;63.824;20.288;2023-06-26T00:06:41;5.20;;;4.57;;
13475;SDS011;6810;63.824;20.288;2023-06-26T00:09:08;5.13;;;4.73;;
13475;SDS011;6810;63.824;20.288;2023-06-26T00:11:36;4.97;;;4.53;;
13475;SDS011;6810;63.824;20.288;2023-06-26T00:14:03;11.03;;;4.70;;
13475;SDS011;6810;63.824;20.288;2023-06-26T00:16:30;6.10;;;4.93;;
13475;SDS011;6810;63.824;20.288;2023-06-26T00:18:57;5.40;;;4.90;;
13475;SDS011;6810;63.824;20.288;2023-06-26T00:21:28;5.13;;;4.63;;
13475;SDS011;6810;63.824;20.288;2023-06-26T00:23:55;6.13;;;5.47;;
13475;SDS011;6810;63.824;20.288;2023-06-26T00:26:22;6.30;;;5.13;;
13475;SDS011;6810;63.824;20.288;2023-06-26T00:28:51;5.10;;;4.60;;
13475;SDS011;6810;63.824;20.288;2023-06-26T00:31:19;6.37;;;4.10;;
13475;SDS011;6810;63.824;20.288;2023-06-26T00:33:46;5.17;;;4.13;;
13475;SDS011;6810;63.824;20.288;2023-06-26T00:36:13;5.03;;;4.33;;
13475;SDS011;6810;63.824;20.288;2023-06-26T00:38:41;5.13;;;4.63;;
13475;SDS011;6810;63.824;20.288;2023-06-26T00:41:08;5.40;;;4.90;;
13475;SDS011;6810;63.824;20.288;2023-06-26T00:43:39;4.70;;;4.30;;
13475;SDS011;6810;63.824;20.288;2023-06-26T00:46:10;11.70;;;5.00;;
13475;SDS011;6810;63.824;20.288;2023-06-26T00:48:39;4.20;;;3.90;;
13475;SDS011;6810;63.824;20.288;2023-06-26T00:51:11;10.13;;;5.03;;
13475;SDS011;6810;63.824;20.288;2023-06-26T00:53:38;15.70;;;5.53;;
13475;SDS011;6810;63.824;20.288;2023-06-26T00:56:06;16.07;;;5.57;;
13475;SDS011;6810;63.824;20.288;2023-06-26T00:58:35;5.93;;;5.27;;
13475;SDS011;6810;63.824;20.288;2023-06-26T01:01:02;8.87;;;5.53;;
13475;SDS011;6810;63.824;20.288;2023-06-26T01:03:32;6.53;;;5.43;;
13475;SDS011;6810;63.824;20.288;2023-06-26T01:06:00;5.63;;;4.70;;
13475;SDS011;6810;63.824;20.288;2023-06-26T01:08:31;7.03;;;4.77;;
13475;SDS011;6810;63.824;20.288;2023-06-26T01:10:58;12.30;;;5.43;;
13475;SDS011;6810;63.824;20.288;2023-06-26T01:13:25;11.80;;;5.30;;
13475;SDS011;6810;63.824;20.288;2023-06-26T01:15:55;17.47;;;5.30;;
13475;SDS011;6810;63.824;20.288;2023-06-26T01:18:25;6.97;;;5.20;;
13475;SDS011;6810;63.824;20.288;2023-06-26T01:20:52;5.60;;;4.67;;
13475;SDS011;6810;63.824;20.288;2023-06-26T01:23:22;8.70;;;4.60;;
13475;SDS011;6810;63.824;20.288;2023-06-26T01:28:34;10.40;;;5.33;;
13475;SDS011;6810;63.824;20.288;2023-06-26T01:31:05;9.60;;;5.60;;
13475;SDS011;6810;63.824;20.288;2023-06-26T01:33:33;23.20;;;6.70;;
13475;SDS011;6810;63.824;20.288;2023-06-26T01:36:01;21.27;;;7.77;;
13475;SDS011;6810;63.824;20.288;2023-06-26T01:38:28;19.33;;;6.90;;
13475;SDS011;6810;63.824;20.288;2023-06-26T01:40:56;13.30;;;7.07;;
13475;SDS011;6810;63.824;20.288;2023-06-26T01:46:23;19.00;;;6.60;;
13475;SDS011;6810;63.824;20.288;2023-06-26T01:49:06;11.07;;;5.70;;
13475;SDS011;6810;63.824;20.288;2023-06-26T01:52:02;14.53;;;4.77;;
13475;SDS011;6810;63.824;20.288;2023-06-26T01:54:41;9.57;;;5.43;;
13475;SDS011;6810;63.824;20.288;2023-06-26T01:57:14;13.43;;;5.57;;
13475;SDS011;6810;63.824;20.288;2023-06-26T01:59:46;6.50;;;5.37;;
13475;SDS011;6810;63.824;20.288;2023-06-26T02:02:14;9.47;;;5.67;;
13475;SDS011;6810;63.824;20.288;2023-06-26T02:04:41;6.20;;;4.83;;
13475;SDS011;6810;63.824;20.288;2023-06-26T02:07:09;9.10;;;4.50;;
13475;SDS011;6810;63.824;20.288;2023-06-26T02:09:36;8.23;;;5.00;;
13475;SDS011;6810;63.824;20.288;2023-06-26T02:12:04;5.47;;;4.87;;
13475;SDS011;6810;63.824;20.288;2023-06-26T02:14:31;5.83;;;5.23;;
13475;SDS011;6810;63.824;20.288;2023-06-26T02:16:59;10.47;;;5.03;;
13475;SDS011;6810;63.824;20.288;2023-06-26T02:19:26;5.70;;;4.90;;
13475;SDS011;6810;63.824;20.288;2023-06-26T02:21:54;6.00;;;5.00;;
13475;SDS011;6810;63.824;20.288;2023-06-26T02:24:23;5.37;;;4.87;;
13475;SDS011;6810;63.824;20.288;2023-06-26T02:26:50;5.27;;;4.77;;
13475;SDS011;6810;63.824;20.288;2023-06-26T02:29:17;5.27;;;4.73;;
13475;SDS011;6810;63.824;20.288;2023-06-26T02:31:44;5.20;;;4.70;;
13475;SDS011;6810;63.824;20.288;2023-06-26T02:34:11;5.43;;;4.93;;
13475;SDS011;6810;63.824;20.288;2023-06-26T02:36:38;5.13;;;4.40;;
13475;SDS011;6810;63.824;20.288;2023-06-26T02:39:07;5.47;;;4.97;;
13475;SDS011;6810;63.824;20.288;2023-06-26T02:41:34;6.13;;;5.20;;
13475;SDS011;6810;63.824;20.288;2023-06-26T02:44:01;5.17;;;4.67;;
13475;SDS011;6810;63.824;20.288;2023-06-26T02:46:28;4.97;;;4.47;;
13475;SDS011;6810;63.824;20.288;2023-06-26T02:48:56;4.73;;;4.30;;
13475;SDS011;6810;63.824;20.288;2023-06-26T02:51:24;5.03;;;4.63;;
13475;SDS011;6810;63.824;20.288;2023-06-26T02:53:52;4.97;;;4.47;;
13475;SDS011;6810;63.824;20.288;2023-06-26T02:56:20;5.83;;;4.93;;
13475;SDS011;6810;63.824;20.288;2023-06-26T02:58:47;5.37;;;4.80;;
13475;SDS011;6810;63.824;20.288;2023-06-26T03:01:14;5.80;;;5.20;;
13475;SDS011;6810;63.824;20.288;2023-06-26T03:03:44;6.53;;;5.80;;
13475;SDS011;6810;63.824;20.288;2023-06-26T03:06:16;6.00;;;5.40;;
13475;SDS011;6810;63.824;20.288;2023-06-26T03:08:44;5.40;;;4.90;;
13475;SDS011;6810;63.824;20.288;2023-06-26T03:11:13;6.37;;;5.77;;
13475;SDS011;6810;63.824;20.288;2023-06-26T03:13:40;5.80;;;5.20;;
13475;SDS011;6810;63.824;20.288;2023-06-26T03:16:08;6.00;;;5.40;;
13475;SDS011;6810;63.824;20.288;2023-06-26T03:18:35;5.67;;;5.17;;
13475;SDS011;6810;63.824;20.288;2023-06-26T03:21:02;6.00;;;5.40;;
13475;SDS011;6810;63.824;20.288;2023-06-26T03:23:29;6.57;;;5.87;;
13475;SDS011;6810;63.824;20.288;2023-06-26T03:25:56;6.77;;;5.87;;
13475;SDS011;6810;63.824;20.288;2023-06-26T03:28:29;7.27;;;5.90;;
13475;SDS011;6810;63.824;20.288;2023-06-26T03:30:57;6.10;;;5.50;;
13475;SDS011;6810;63.824;20.288;2023-06-26T03:33:25;6.13;;;5.53;;
13475;SDS011;6810;63.824;20.288;2023-06-26T03:35:53;6.90;;;5.87;;
13475;SDS011;6810;63.824;20.288;2023-06-26T03:38:21;7.50;;;6.37;;
13475;SDS011;6810;63.824;20.288;2023-06-26T03:40:49;8.57;;;6.07;;
13475;SDS011;6810;63.824;20.288;2023-06-26T03:43:16;6.70;;;5.93;;
13475;SDS011;6810;63.824;20.288;2023-06-26T03:45:51;7.03;;;6.07;;
13475;SDS011;6810;63.824;20.288;2023-06-26T03:48:18;8.00;;;6.30;;
13475;SDS011;6810;63.824;20.288;2023-06-26T03:50:46;7.47;;;6.60;;
13475;SDS011;6810;63.824;20.288;2023-06-26T03:53:16;8.37;;;7.07;;
13475;SDS011;6810;63.824;20.288;2023-06-26T03:55:43;6.90;;;6.13;;
13475;SDS011;6810;63.824;20.288;2023-06-26T03:58:10;7.90;;;6.70;;
13475;SDS011;6810;63.824;20.288;2023-06-26T04:00:38;6.67;;;5.97;;
13475;SDS011;6810;63.824;20.288;2023-06-26T04:03:05;7.23;;;6.53;;
13475;SDS011;6810;63.824;20.288;2023-06-26T04:05:32;7.30;;;6.00;;
13475;SDS011;6810;63.824;20.288;2023-06-26T04:08:00;7.80;;;6.87;;
13475;SDS011;6810;63.824;20.288;2023-06-26T04:10:27;6.93;;;6.23;;
13475;SDS011;6810;63.824;20.288;2023-06-26T04:12:54;7.63;;;6.93;;
13475;SDS011;6810;63.824;20.288;2023-06-26T04:15:21;7.70;;;6.90;;
13475;SDS011;6810;63.824;20.288;2023-06-26T04:17:49;6.40;;;5.80;;
13475;SDS011;6810;63.824;20.288;2023-06-26T04:20:16;7.27;;;6.57;;
13475;SDS011;6810;63.824;20.288;2023-06-26T04:22:43;7.47;;;6.70;;
13475;SDS011;6810;63.824;20.288;2023-06-26T04:25:10;7.17;;;6.47;;
13475;SDS011;6810;63.824;20.288;2023-06-26T04:27:38;6.90;;;6.20;;
13475;SDS011;6810;63.824;20.288;2023-06-26T04:30:07;7.23;;;6.53;;
13475;SDS011;6810;63.824;20.288;2023-06-26T04:32:36;7.57;;;6.87;;
13475;SDS011;6810;63.824;20.288;2023-06-26T04:35:03;7.53;;;6.83;;
13475;SDS011;6810;63.824;20.288;2023-06-26T04:37:30;7.33;;;6.63;;
13475;SDS011;6810;63.824;20.288;2023-06-26T04:39:57;7.13;;;6.43;;
13475;SDS011;6810;63.824;20.288;2023-06-26T04:42:24;7.23;;;6.50;;
13475;SDS011;6810;63.824;20.288;2023-06-26T04:44:51;7.33;;;6.37;;
13475;SDS011;6810;63.824;20.288;2023-06-26T04:47:18;8.30;;;6.70;;
13475;SDS011;6810;63.824;20.288;2023-06-26T04:49:46;7.90;;;6.87;;
13475;SDS011;6810;63.824;20.288;2023-06-26T04:52:13;8.20;;;7.40;;
13475;SDS011;6810;63.824;20.288;2023-06-26T04:54:40;7.67;;;6.93;;
13475;SDS011;6810;63.824;20.288;2023-06-26T04:57:07;7.93;;;7.03;;
13475;SDS011;6810;63.824;20.288;2023-06-26T04:59:35;7.00;;;6.30;;
13475;SDS011;6810;63.824;20.288;2023-06-26T05:02:02;8.03;;;6.83;;
13475;SDS011;6810;63.824;20.288;2023-06-26T05:04:31;8.70;;;7.50;;
13475;SDS011;6810;63.824;20.288;2023-06-26T05:06:59;7.87;;;7.13;;
13475;SDS011;6810;63.824;20.288;2023-06-26T05:09:26;7.90;;;7.10;;
13475;SDS011;6810;63.824;20.288;2023-06-26T05:11:53;8.73;;;7.33;;
13475;SDS011;6810;63.824;20.288;2023-06-26T05:14:20;8.60;;;7.70;;
13475;SDS011;6810;63.824;20.288;2023-06-26T05:16:51;8.20;;;7.40;;
13475;SDS011;6810;63.824;20.288;2023-06-26T05:19:18;8.17;;;7.37;;
13475;SDS011;6810;63.824;20.288;2023-06-26T05:21:45;8.33;;;7.47;;
13475;SDS011;6810;63.824;20.288;2023-06-26T05:24:13;8.30;;;7.50;;
13475;SDS011;6810;63.824;20.288;2023-06-26T05:26:41;8.40;;;7.60;;
13475;SDS011;6810;63.824;20.288;2023-06-26T05:29:09;8.23;;;7.10;;
13475;SDS011;6810;63.824;20.288;2023-06-26T05:31:37;8.90;;;8.07;;
13475;SDS011;6810;63.824;20.288;2023-06-26T05:34:08;8.63;;;7.83;;
13475;SDS011;6810;63.824;20.288;2023-06-26T05:36:37;8.70;;;7.47;;
13475;SDS011;6810;63.824;20.288;2023-06-26T05:39:05;7.57;;;6.87;;
13475;SDS011;6810;63.824;20.288;2023-06-26T05:41:33;7.77;;;6.97;;
13475;SDS011;6810;63.824;20.288;2023-06-26T05:44:00;8.23;;;7.43;;
13475;SDS011;6810;63.824;20.288;2023-06-26T05:46:27;8.60;;;7.73;;
13475;SDS011;6810;63.824;20.288;2023-06-26T05:48:54;7.00;;;6.37;;
13475;SDS011;6810;63.824;20.288;2023-06-26T05:51:21;9.20;;;7.57;;
13475;SDS011;6810;63.824;20.288;2023-06-26T05:53:49;7.10;;;6.40;;
13475;SDS011;6810;63.824;20.288;2023-06-26T05:56:16;7.33;;;6.63;;
13475;SDS011;6810;63.824;20.288;2023-06-26T05:59:04;8.23;;;7.00;;
13475;SDS011;6810;63.824;20.288;2023-06-26T06:01:52;8.40;;;7.00;;
13475;SDS011;6810;63.824;20.288;2023-06-26T06:04:40;7.17;;;6.50;;
13475;SDS011;6810;63.824;20.288;2023-06-26T06:07:27;7.17;;;6.47;;
13475;SDS011;6810;63.824;20.288;2023-06-26T06:10:14;7.60;;;6.83;;
13475;SDS011;6810;63.824;20.288;2023-06-26T06:13:01;7.30;;;6.70;;
13475;SDS011;6810;63.824;20.288;2023-06-26T06:15:48;7.40;;;6.67;;
13475;SDS011;6810;63.824;20.288;2023-06-26T06:18:35;7.60;;;5.97;;
13475;SDS011;6810;63.824;20.288;2023-06-26T06:21:22;6.60;;;6.00;;
13475;SDS011;6810;63.824;20.288;2023-06-26T06:24:09;6.17;;;5.57;;
13475;SDS011;6810;63.824;20.288;2023-06-26T06:26:56;6.40;;;5.80;;
13475;SDS011;6810;63.824;20.288;2023-06-26T06:29:43;6.70;;;6.00;;
13475;SDS011;6810;63.824;20.288;2023-06-26T06:32:34;6.17;;;5.57;;
13475;SDS011;6810;63.824;20.288;2023-06-26T06:35:21;6.83;;;6.23;;
13475;SDS011;6810;63.824;20.288;2023-06-26T06:38:08;6.97;;;6.37;;
13475;SDS011;6810;63.824;20.288;2023-06-26T06:40:55;7.13;;;6.53;;
13475;SDS011;6810;63.824;20.288;2023-06-26T06:43:42;7.17;;;6.57;;
13475;SDS011;6810;63.824;20.288;2023-06-26T06:46:29;7.10;;;6.40;;
13475;SDS011;6810;63.824;20.288;2023-06-26T06:49:16;7.10;;;6.30;;
13475;SDS011;6810;63.824;20.288;2023-06-26T06:52:03;6.43;;;5.93;;
13475;SDS011;6810;63.824;20.288;2023-06-26T06:54:51;6.23;;;5.63;;
13475;SDS011;6810;63.824;20.288;2023-06-26T06:57:40;6.50;;;5.90;;
13475;SDS011;6810;63.824;20.288;2023-06-26T07:00:31;6.80;;;6.20;;
13475;SDS011;6810;63.824;20.288;2023-06-26T07:03:18;7.37;;;6.67;;
13475;SDS011;6810;63.824;20.288;2023-06-26T07:06:05;6.93;;;6.33;;
13475;SDS011;6810;63.824;20.288;2023-06-26T07:08:52;6.97;;;6.37;;
13475;SDS011;6810;63.824;20.288;2023-06-26T07:11:39;8.00;;;7.20;;
13475;SDS011;6810;63.824;20.288;2023-06-26T07:14:26;7.70;;;7.10;;
13475;SDS011;6810;63.824;20.288;2023-06-26T07:17:13;6.97;;;6.37;;
13475;SDS011;6810;63.824;20.288;2023-06-26T07:20:01;7.30;;;6.70;;
13475;SDS011;6810;63.824;20.288;2023-06-26T07:22:48;7.20;;;6.57;;
13475;SDS011;6810;63.824;20.288;2023-06-26T07:25:37;6.80;;;6.20;;
13475;SDS011;6810;63.824;20.288;2023-06-26T07:28:24;7.07;;;6.47;;
13475;SDS011;6810;63.824;20.288;2023-06-26T07:31:11;6.90;;;6.30;;
13475;SDS011;6810;63.824;20.288;2023-06-26T07:33:58;6.87;;;6.27;;
13475;SDS011;6810;63.824;20.288;2023-06-26T07:36:45;6.73;;;6.13;;
13475;SDS011;6810;63.824;20.288;2023-06-26T07:39:33;6.37;;;5.87;;
13475;SDS011;6810;63.824;20.288;2023-06-26T07:42:20;6.57;;;5.97;;
13475;SDS011;6810;63.824;20.288;2023-06-26T07:45:07;6.43;;;5.87;;
13475;SDS011;6810;63.824;20.288;2023-06-26T07:47:54;6.30;;;5.40;;
13475;SDS011;6810;63.824;20.288;2023-06-26T07:50:42;6.03;;;5.53;;
13475;SDS011;6810;63.824;20.288;2023-06-26T07:53:29;5.40;;;5.00;;
13475;SDS011;6810;63.824;20.288;2023-06-26T07:56:16;5.50;;;5.00;;
13475;SDS011;6810;63.824;20.288;2023-06-26T07:59:03;4.63;;;4.23;;
13475;SDS011;6810;63.824;20.288;2023-06-26T08:01:50;4.33;;;4.03;;
13475;SDS011;6810;63.824;20.288;2023-06-26T08:04:38;4.87;;;4.37;;
13475;SDS011;6810;63.824;20.288;2023-06-26T08:07:25;4.40;;;4.03;;
13475;SDS011;6810;63.824;20.288;2023-06-26T08:10:12;3.70;;;3.40;;
13475;SDS011;6810;63.824;20.288;2023-06-26T08:12:59;3.87;;;3.57;;
13475;SDS011;6810;63.824;20.288;2023-06-26T08:15:46;3.90;;;3.60;;
13475;SDS011;6810;63.824;20.288;2023-06-26T08:18:33;3.53;;;3.33;;
13475;SDS011;6810;63.824;20.288;2023-06-26T08:21:21;3.93;;;3.63;;
13475;SDS011;6810;63.824;20.288;2023-06-26T08:24:08;3.93;;;3.60;;
13475;SDS011;6810;63.824;20.288;2023-06-26T08:26:55;4.17;;;3.67;;
13475;SDS011;6810;63.824;20.288;2023-06-26T08:29:42;4.33;;;3.93;;
13475;SDS011;6810;63.824;20.288;2023-06-26T08:32:30;4.37;;;4.03;;
13475;SDS011;6810;63.824;20.288;2023-06-26T08:35:17;5.20;;;4.23;;
13475;SDS011;6810;63.824;20.288;2023-06-26T08:38:04;4.73;;;4.37;;
13475;SDS011;6810;63.824;20.288;2023-06-26T08:40:51;4.50;;;4.10;;
13475;SDS011;6810;63.824;20.288;2023-06-26T08:43:39;4.33;;;4.00;;
13475;SDS011;6810;63.824;20.288;2023-06-26T08:46:26;4.23;;;3.93;;
13475;SDS011;6810;63.824;20.288;2023-06-26T08:49:18;5.13;;;4.63;;
13475;SDS011;6810;63.824;20.288;2023-06-26T08:52:15;4.40;;;4.10;;
13475;SDS011;6810;63.824;20.288;2023-06-26T08:55:06;5.00;;;4.60;;
13475;SDS011;6810;63.824;20.288;2023-06-26T08:57:56;4.83;;;4.33;;
13475;SDS011;6810;63.824;20.288;2023-06-26T09:00:44;4.63;;;4.27;;
13475;SDS011;6810;63.824;20.288;2023-06-26T09:03:31;4.57;;;4.17;;
13475;SDS011;6810;63.824;20.288;2023-06-26T09:06:18;5.17;;;4.63;;
13475;SDS011;6810;63.824;20.288;2023-06-26T09:09:06;5.37;;;4.60;;
13475;SDS011;6810;63.824;20.288;2023-06-26T09:11:53;4.87;;;4.47;;
13475;SDS011;6810;63.824;20.288;2023-06-26T09:14:40;4.73;;;4.30;;
13475;SDS011;6810;63.824;20.288;2023-06-26T09:17:38;5.27;;;4.80;;
13475;SDS011;6810;63.824;20.288;2023-06-26T09:20:28;4.97;;;4.57;;
13475;SDS011;6810;63.824;20.288;2023-06-26T09:23:16;5.63;;;5.13;;
13475;SDS011;6810;63.824;20.288;2023-06-26T09:26:03;5.23;;;4.73;;
13475;SDS011;6810;63.824;20.288;2023-06-26T09:28:52;5.60;;;5.10;;
13475;SDS011;6810;63.824;20.288;2023-06-26T09:31:40;5.33;;;4.93;;
13475;SDS011;6810;63.824;20.288;2023-06-26T09:34:31;5.43;;;5.03;;
13475;SDS011;6810;63.824;20.288;2023-06-26T09:37:19;5.20;;;4.80;;
13475;SDS011;6810;63.824;20.288;2023-06-26T09:40:06;5.30;;;4.90;;
13475;SDS011;6810;63.824;20.288;2023-06-26T09:42:53;5.47;;;4.47;;
13475;SDS011;6810;63.824;20.288;2023-06-26T09:45:49;5.03;;;4.63;;
13475;SDS011;6810;63.824;20.288;2023-06-26T09:48:37;4.80;;;4.40;;
13475;SDS011;6810;63.824;20.288;2023-06-26T09:51:24;4.97;;;4.57;;
13475;SDS011;6810;63.824;20.288;2023-06-26T09:54:11;5.07;;;4.67;;
13475;SDS011;6810;63.824;20.288;2023-06-26T09:57:10;5.10;;;4.60;;
13475;SDS011;6810;63.824;20.288;2023-06-26T09:59:59;5.00;;;4.60;;
13475;SDS011;6810;63.824;20.288;2023-06-26T10:02:46;5.13;;;4.70;;
13475;SDS011;6810;63.824;20.288;2023-06-26T10:05:33;4.93;;;4.50;;
13475;SDS011;6810;63.824;20.288;2023-06-26T10:08:20;5.30;;;4.70;;
13475;SDS011;6810;63.824;20.288;2023-06-26T10:11:07;5.80;;;5.30;;
13475;SDS011;6810;63.824;20.288;2023-06-26T10:13:58;5.23;;;4.73;;
13475;SDS011;6810;63.824;20.288;2023-06-26T10:16:46;5.30;;;4.90;;
13475;SDS011;6810;63.824;20.288;2023-06-26T10:19:37;5.87;;;5.27;;
13475;SDS011;6810;63.824;20.288;2023-06-26T10:22:27;5.90;;;5.40;;
13475;SDS011;6810;63.824;20.288;2023-06-26T10:25:19;5.83;;;5.30;;
13475;SDS011;6810;63.824;20.288;2023-06-26T10:28:07;6.50;;;6.00;;
13475;SDS011;6810;63.824;20.288;2023-06-26T10:30:56;5.40;;;5.00;;
13475;SDS011;6810;63.824;20.288;2023-06-26T10:33:44;5.10;;;4.70;;
13475;SDS011;6810;63.824;20.288;2023-06-26T10:36:31;4.90;;;4.60;;
13475;SDS011;6810;63.824;20.288;2023-06-26T10:39:18;7.60;;;4.67;;
13475;SDS011;6810;63.824;20.288;2023-06-26T10:42:09;4.73;;;4.30;;
13475;SDS011;6810;63.824;20.288;2023-06-26T10:44:56;4.53;;;4.23;;
13475;SDS011;6810;63.824;20.288;2023-06-26T10:47:56;5.10;;;4.67;;
13475;SDS011;6810;63.824;20.288;2023-06-26T10:50:46;4.53;;;4.13;;
13475;SDS011;6810;63.824;20.288;2023-06-26T10:53:34;4.77;;;4.37;;
13475;SDS011;6810;63.824;20.288;2023-06-26T10:56:21;4.70;;;4.30;;
13475;SDS011;6810;63.824;20.288;2023-06-26T10:59:27;4.90;;;4.40;;
13475;SDS011;6810;63.824;20.288;2023-06-26T11:02:16;4.57;;;4.10;;
13475;SDS011;6810;63.824;20.288;2023-06-26T11:05:03;4.10;;;3.80;;
13475;SDS011;6810;63.824;20.288;2023-06-26T11:08:08;4.43;;;4.10;;
13475;SDS011;6810;63.824;20.288;2023-06-26T11:10:59;4.40;;;4.10;;
13475;SDS011;6810;63.824;20.288;2023-06-26T11:13:46;4.53;;;4.13;;
13475;SDS011;6810;63.824;20.288;2023-06-26T11:16:34;4.33;;;3.93;;
13475;SDS011;6810;63.824;20.288;2023-06-26T11:19:21;5.60;;;5.10;;
13475;SDS011;6810;63.824;20.288;2023-06-26T11:22:08;4.57;;;4.27;;
13475;SDS011;6810;63.824;20.288;2023-06-26T11:24:59;5.20;;;4.60;;
13475;SDS011;6810;63.824;20.288;2023-06-26T11:27:46;4.60;;;4.30;;
13475;SDS011;6810;63.824;20.288;2023-06-26T11:30:33;5.00;;;4.60;;
13475;SDS011;6810;63.824;20.288;2023-06-26T11:33:26;4.80;;;4.40;;
13475;SDS011;6810;63.824;20.288;2023-06-26T11:36:13;4.70;;;4.17;;
13475;SDS011;6810;63.824;20.288;2023-06-26T11:39:01;4.47;;;4.07;;
13475;SDS011;6810;63.824;20.288;2023-06-26T11:41:51;4.80;;;4.43;;
13475;SDS011;6810;63.824;20.288;2023-06-26T11:44:39;4.70;;;4.40;;
13475;SDS011;6810;63.824;20.288;2023-06-26T11:47:27;4.27;;;3.97;;
13475;SDS011;6810;63.824;20.288;2023-06-26T11:49:56;4.20;;;3.90;;
13475;SDS011;6810;63.824;20.288;2023-06-26T11:52:23;4.30;;;4.00;;
13475;SDS011;6810;63.824;20.288;2023-06-26T11:54:50;4.30;;;4.00;;
13475;SDS011;6810;63.824;20.288;2023-06-26T11:57:37;4.70;;;4.30;;
13475;SDS011;6810;63.824;20.288;2023-06-26T12:00:24;4.37;;;4.07;;
13475;SDS011;6810;63.824;20.288;2023-06-26T12:03:11;4.40;;;4.10;;
13475;SDS011;6810;63.824;20.288;2023-06-26T12:05:59;4.43;;;4.03;;
13475;SDS011;6810;63.824;20.288;2023-06-26T12:08:46;4.17;;;3.87;;
13475;SDS011;6810;63.824;20.288;2023-06-26T12:11:34;4.20;;;3.90;;
13475;SDS011;6810;63.824;20.288;2023-06-26T12:14:22;4.30;;;4.00;;
13475;SDS011;6810;63.824;20.288;2023-06-26T12:17:10;4.10;;;3.80;;
13475;SDS011;6810;63.824;20.288;2023-06-26T12:19:58;4.03;;;3.77;;
13475;SDS011;6810;63.824;20.288;2023-06-26T12:22:45;4.53;;;3.83;;
13475;SDS011;6810;63.824;20.288;2023-06-26T12:25:33;4.43;;;4.13;;
13475;SDS011;6810;63.824;20.288;2023-06-26T12:28:20;4.50;;;4.10;;
13475;SDS011;6810;63.824;20.288;2023-06-26T12:31:13;4.50;;;4.10;;
13475;SDS011;6810;63.824;20.288;2023-06-26T12:34:01;4.50;;;4.13;;
13475;SDS011;6810;63.824;20.288;2023-06-26T12:36:59;4.78;;;4.38;;
13475;SDS011;6810;63.824;20.288;2023-06-26T12:42:37;4.53;;;4.23;;
13475;SDS011;6810;63.824;20.288;2023-06-26T12:45:24;4.80;;;4.40;;
13475;SDS011;6810;63.824;20.288;2023-06-26T12:48:14;4.57;;;4.20;;
13475;SDS011;6810;63.824;20.288;2023-06-26T12:51:08;4.50;;;4.10;;
13475;SDS011;6810;63.824;20.288;2023-06-26T12:54:02;4.87;;;4.47;;
13475;SDS011;6810;63.824;20.288;2023-06-26T12:56:49;5.30;;;4.90;;
13475;SDS011;6810;63.824;20.288;2023-06-26T12:59:36;4.47;;;4.07;;
13475;SDS011;6810;63.824;20.288;2023-06-26T13:02:24;4.90;;;4.40;;
13475;SDS011;6810;63.824;20.288;2023-06-26T13:05:11;4.57;;;4.17;;
13475;SDS011;6810;63.824;20.288;2023-06-26T13:07:58;4.40;;;4.00;;
13475;SDS011;6810;63.824;20.288;2023-06-26T13:10:45;4.60;;;4.20;;
13475;SDS011;6810;63.824;20.288;2023-06-26T13:13:32;4.30;;;3.90;;
13475;SDS011;6810;63.824;20.288;2023-06-26T13:16:36;4.33;;;4.03;;
13475;SDS011;6810;63.824;20.288;2023-06-26T13:19:23;4.17;;;3.87;;
13475;SDS011;6810;63.824;20.288;2023-06-26T13:22:10;4.43;;;4.13;;
13475;SDS011;6810;63.824;20.288;2023-06-26T13:24:57;4.30;;;4.00;;
13475;SDS011;6810;63.824;20.288;2023-06-26T13:27:44;4.27;;;3.97;;
13475;SDS011;6810;63.824;20.288;2023-06-26T13:30:31;4.60;;;4.30;;
13475;SDS011;6810;63.824;20.288;2023-06-26T13:33:18;5.07;;;4.67;;
13475;SDS011;6810;63.824;20.288;2023-06-26T13:36:05;4.73;;;4.43;;
13475;SDS011;6810;63.824;20.288;2023-06-26T13:38:52;5.03;;;4.53;;
13475;SDS011;6810;63.824;20.288;2023-06-26T13:41:41;5.97;;;5.47;;
13475;SDS011;6810;63.824;20.288;2023-06-26T13:44:29;6.17;;;5.67;;
13475;SDS011;6810;63.824;20.288;2023-06-26T13:47:29;5.50;;;5.10;;
13475;SDS011;6810;63.824;20.288;2023-06-26T13:50:16;5.83;;;5.33;;
13475;SDS011;6810;63.824;20.288;2023-06-26T13:53:19;5.50;;;5.00;;
13475;SDS011;6810;63.824;20.288;2023-06-26T13:56:07;5.37;;;4.87;;
13475;SDS011;6810;63.824;20.288;2023-06-26T13:58:54;6.23;;;5.73;;
13475;SDS011;6810;63.824;20.288;2023-06-26T14:01:41;6.23;;;5.63;;
13475;SDS011;6810;63.824;20.288;2023-06-26T14:04:29;5.97;;;5.47;;
13475;SDS011;6810;63.824;20.288;2023-06-26T14:07:16;5.50;;;4.90;;
13475;SDS011;6810;63.824;20.288;2023-06-26T14:10:03;7.83;;;5.00;;
13475;SDS011;6810;63.824;20.288;2023-06-26T14:12:50;5.60;;;5.20;;
13475;SDS011;6810;63.824;20.288;2023-06-26T14:15:37;5.33;;;4.93;;
13475;SDS011;6810;63.824;20.288;2023-06-26T14:18:25;5.40;;;5.00;;
13475;SDS011;6810;63.824;20.288;2023-06-26T14:21:12;5.83;;;5.33;;
13475;SDS011;6810;63.824;20.288;2023-06-26T14:23:59;6.10;;;5.60;;
13475;SDS011;6810;63.824;20.288;2023-06-26T14:26:46;6.00;;;5.50;;
13475;SDS011;6810;63.824;20.288;2023-06-26T14:29:33;6.30;;;5.70;;
13475;SDS011;6810;63.824;20.288;2023-06-26T14:32:20;7.87;;;5.70;;
13475;SDS011;6810;63.824;20.288;2023-06-26T14:35:08;5.27;;;4.77;;
13475;SDS011;6810;63.824;20.288;2023-06-26T14:37:55;6.43;;;5.83;;
13475;SDS011;6810;63.824;20.288;2023-06-26T14:40:42;6.10;;;5.60;;
13475;SDS011;6810;63.824;20.288;2023-06-26T14:43:30;7.40;;;5.37;;
13475;SDS011;6810;63.824;20.288;2023-06-26T14:46:17;6.10;;;5.67;;
13475;SDS011;6810;63.824;20.288;2023-06-26T14:49:05;6.10;;;5.50;;
13475;SDS011;6810;63.824;20.288;2023-06-26T14:51:52;5.63;;;5.07;;
13475;SDS011;6810;63.824;20.288;2023-06-26T14:54:39;5.37;;;4.87;;
13475;SDS011;6810;63.824;20.288;2023-06-26T14:57:26;4.97;;;4.57;;
13475;SDS011;6810;63.824;20.288;2023-06-26T15:00:13;5.47;;;4.97;;
13475;SDS011;6810;63.824;20.288;2023-06-26T15:03:01;4.97;;;4.57;;
13475;SDS011;6810;63.824;20.288;2023-06-26T15:05:48;4.63;;;4.27;;
13475;SDS011;6810;63.824;20.288;2023-06-26T15:08:35;4.70;;;4.40;;
13475;SDS011;6810;63.824;20.288;2023-06-26T15:11:22;4.90;;;4.50;;
13475;SDS011;6810;63.824;20.288;2023-06-26T15:14:09;4.70;;;4.40;;
13475;SDS011;6810;63.824;20.288;2023-06-26T15:16:56;4.90;;;4.50;;
13475;SDS011;6810;63.824;20.288;2023-06-26T15:19:43;4.77;;;4.43;;
13475;SDS011;6810;63.824;20.288;2023-06-26T15:22:30;4.40;;;4.00;;
13475;SDS011;6810;63.824;20.288;2023-06-26T15:25:17;4.57;;;4.20;;
13475;SDS011;6810;63.824;20.288;2023-06-26T15:28:05;4.87;;;4.47;;
13475;SDS011;6810;63.824;20.288;2023-06-26T15:30:53;4.43;;;4.13;;
13475;SDS011;6810;63.824;20.288;2023-06-26T15:33:43;5.37;;;4.87;;
13475;SDS011;6810;63.824;20.288;2023-06-26T15:36:30;4.13;;;3.83;;
13475;SDS011;6810;63.824;20.288;2023-06-26T15:39:17;5.00;;;4.60;;
13475;SDS011;6810;63.824;20.288;2023-06-26T15:42:06;4.47;;;4.17;;
13475;SDS011;6810;63.824;20.288;2023-06-26T15:44:53;4.67;;;4.30;;
13475;SDS011;6810;63.824;20.288;2023-06-26T15:47:41;4.60;;;4.23;;
13475;SDS011;6810;63.824;20.288;2023-06-26T15:50:28;4.43;;;4.13;;
13475;SDS011;6810;63.824;20.288;2023-06-26T15:53:15;4.33;;;4.03;;
13475;SDS011;6810;63.824;20.288;2023-06-26T15:56:05;5.43;;;4.50;;
13475;SDS011;6810;63.824;20.288;2023-06-26T15:58:54;4.80;;;4.40;;
13475;SDS011;6810;63.824;20.288;2023-06-26T16:01:41;5.17;;;4.77;;
13475;SDS011;6810;63.824;20.288;2023-06-26T16:04:31;4.63;;;4.23;;
13475;SDS011;6810;63.824;20.288;2023-06-26T16:07:18;5.03;;;4.63;;
13475;SDS011;6810;63.824;20.288;2023-06-26T16:10:21;4.87;;;4.47;;
13475;SDS011;6810;63.824;20.288;2023-06-26T16:13:09;5.47;;;5.07;;
13475;SDS011;6810;63.824;20.288;2023-06-26T16:15:56;5.00;;;4.60;;